Time,TemperatureF,DewpointF,PressureIn,WindDirection,WindDirectionDegrees,WindSpeedMPH,WindSpeedGustMPH,Humidity,HourlyPrecipIn,Conditions,Clouds,dailyrainin,SolarRadiationWatts/m^2,SoftwareType,DateUTC
2013-05-09 00:04:00,53.2,39.2,29.94,ESE,113,8.0,37.0,59,0.00,,,0.00,0,Wunderground v.1.15,2013-05-09 06:04:00,
2013-05-09 00:10:00,52.8,38.4,29.95,East,81,9.0,9.0,58,0.00,,,0.00,0,Wunderground v.1.15,2013-05-09 06:10:00,
2013-05-09 00:16:00,52.8,40.5,29.95,ENE,77,9.0,37.0,63,0.00,,,0.00,0,Wunderground v.1.15,2013-05-09 06:16:00,
2013-05-09 00:22:00,52.9,38.1,29.95,ENE,63,8.0,37.0,57,0.00,,,0.00,0,Wunderground v.1.15,2013-05-09 06:22:00,
2013-05-09 00:28:00,53.2,38.4,29.95,NE,56,8.0,37.0,57,0.00,,,0.00,0,Wunderground v.1.15,2013-05-09 06:28:00,
2013-05-09 00:34:00,53.2,36.5,29.95,NE,54,9.0,37.0,53,0.00,,,0.00,0,Wunderground v.1.15,2013-05-09 06:34:00,
2013-05-09 00:40:00,53.6,37.3,29.95,NE,56,10.0,10.0,54,0.00,,,0.00,0,Wunderground v.1.15,2013-05-09 06:40:00,
2013-05-09 00:48:00,53.6,37.3,29.95,ENE,68,9.0,37.0,54,0.00,,,0.00,0,Wunderground v.1.15,2013-05-09 06:48:00,
2013-05-09 00:54:00,53.2,37.0,29.95,ENE,78,9.0,37.0,54,0.00,,,0.00,0,Wunderground v.1.15,2013-05-09 06:54:00,
2013-05-09 01:02:00,52.1,40.3,29.96,ESE,106,6.0,37.0,64,0.00,,,0.00,0,Wunderground v.1.15,2013-05-09 07:02:00,
2013-05-09 01:08:00,50.9,40.7,29.95,East,100,6.0,37.0,68,0.00,,,0.00,0,Wunderground v.1.15,2013-05-09 07:08:00,
2013-05-09 01:14:00,50.1,41.1,29.96,East,91,7.0,37.0,71,0.00,,,0.00,0,Wunderground v.1.15,2013-05-09 07:14:00,
2013-05-09 01:20:00,49.5,39.0,29.96,ESE,106,7.0,7.0,67,0.00,,,0.00,0,Wunderground v.1.15,2013-05-09 07:20:00,
2013-05-09 01:26:00,49.2,39.1,29.96,East,93,7.0,37.0,68,0.00,,,0.00,0,Wunderground v.1.15,2013-05-09 07:26:00,
2013-05-09 01:32:00,49.0,38.5,29.96,East,96,9.0,37.0,67,0.00,,,0.00,0,Wunderground v.1.15,2013-05-09 07:32:00,
2013-05-09 01:38:00,49.2,38.7,29.96,East,80,10.0,37.0,67,0.00,,,0.00,0,Wunderground v.1.15,2013-05-09 07:38:00,
2013-05-09 01:44:00,49.3,38.0,29.96,East,89,9.0,37.0,65,0.00,,,0.00,0,Wunderground v.1.15,2013-05-09 07:44:00,
2013-05-09 01:50:00,49.0,37.7,29.95,East,94,9.0,37.0,65,0.00,,,0.00,0,Wunderground v.1.15,2013-05-09 07:50:00,
2013-05-09 01:56:00,48.7,39.4,29.95,East,92,9.0,37.0,70,0.00,,,0.00,0,Wunderground v.1.15,2013-05-09 07:56:00,
2013-05-09 02:02:00,48.8,38.7,29.96,ESE,104,9.0,12.0,68,0.00,,,0.00,0,Wunderground v.1.15,2013-05-09 08:02:00,
2013-05-09 02:08:00,48.8,37.9,29.96,SE,129,8.0,12.0,66,0.00,,,0.00,0,Wunderground v.1.15,2013-05-09 08:08:00,
2013-05-09 02:14:00,49.1,38.6,29.96,ESE,118,8.0,12.0,67,0.00,,,0.00,0,Wunderground v.1.15,2013-05-09 08:14:00,
2013-05-09 02:20:00,49.4,38.1,29.96,ESE,118,9.0,12.0,65,0.00,,,0.00,0,Wunderground v.1.15,2013-05-09 08:20:00,
2013-05-09 02:26:00,48.6,37.4,29.96,ESE,113,12.0,15.0,65,0.00,,,0.00,0,Wunderground v.1.15,2013-05-09 08:26:00,
2013-05-09 02:32:00,47.5,37.8,29.96,East,96,14.0,14.0,69,0.00,,,0.00,0,Wunderground v.1.15,2013-05-09 08:32:00,
2013-05-09 02:38:00,46.3,38.5,29.96,East,89,12.0,14.0,74,0.00,,,0.00,0,Wunderground v.1.15,2013-05-09 08:38:00,
2013-05-09 02:44:00,47.3,38.7,29.96,ENE,59,11.0,12.0,72,0.00,,,0.00,0,Wunderground v.1.15,2013-05-09 08:44:00,
2013-05-09 02:50:00,48.9,36.4,29.96,NE,55,10.0,10.0,62,0.00,,,0.00,0,Wunderground v.1.15,2013-05-09 08:50:00,
2013-05-09 02:58:00,50.0,37.1,29.97,ESE,116,6.0,12.0,61,0.00,,,0.00,0,Wunderground v.1.15,2013-05-09 08:58:00,
2013-05-09 03:04:00,49.2,37.5,29.96,ESE,106,6.0,12.0,64,0.00,,,0.00,0,Wunderground v.1.15,2013-05-09 09:04:00,
2013-05-09 03:10:00,48.6,38.1,29.96,East,100,8.0,12.0,67,0.00,,,0.00,0,Wunderground v.1.15,2013-05-09 09:10:00,
2013-05-09 03:16:00,48.7,37.8,29.96,East,99,8.0,12.0,66,0.00,,,0.00,0,Wunderground v.1.15,2013-05-09 09:16:00,
2013-05-09 03:22:00,48.6,39.3,29.97,East,88,8.0,12.0,70,0.00,,,0.00,0,Wunderground v.1.15,2013-05-09 09:22:00,
2013-05-09 03:28:00,48.1,39.5,29.97,East,91,7.0,12.0,72,0.00,,,0.00,0,Wunderground v.1.15,2013-05-09 09:28:00,
2013-05-09 03:36:00,48.8,38.7,29.97,ESE,117,5.0,12.0,68,0.00,,,0.00,0,Wunderground v.1.15,2013-05-09 09:36:00,
2013-05-09 03:42:00,48.5,38.8,29.97,ESE,105,6.0,12.0,69,0.00,,,0.00,0,Wunderground v.1.15,2013-05-09 09:42:00,
2013-05-09 03:48:00,47.9,37.5,29.97,East,100,8.0,14.0,67,0.00,,,0.00,0,Wunderground v.1.15,2013-05-09 09:48:00,
2013-05-09 03:54:00,46.9,37.3,29.97,East,89,12.0,14.0,69,0.00,,,0.00,0,Wunderground v.1.15,2013-05-09 09:54:00,
2013-05-09 04:00:00,46.6,36.6,29.97,East,96,13.0,13.0,68,0.00,,,0.00,0,Wunderground v.1.15,2013-05-09 10:00:00,
2013-05-09 04:06:00,46.6,37.3,29.98,East,89,12.0,13.0,70,0.00,,,0.00,0,Wunderground v.1.15,2013-05-09 10:06:00,
2013-05-09 04:12:00,46.9,35.4,29.97,ENE,77,12.0,15.0,64,0.00,,,0.00,0,Wunderground v.1.15,2013-05-09 10:12:00,
2013-05-09 04:18:00,47.6,35.6,29.98,ENE,59,13.0,15.0,63,0.00,,,0.00,0,Wunderground v.1.15,2013-05-09 10:18:00,
2013-05-09 04:24:00,48.4,35.6,29.98,ENE,60,13.0,14.0,61,0.00,,,0.00,0,Wunderground v.1.15,2013-05-09 10:24:00,
2013-05-09 04:30:00,48.4,35.6,29.97,East,84,12.0,13.0,61,0.00,,,0.00,0,Wunderground v.1.15,2013-05-09 10:30:00,
2013-05-09 04:36:00,48.7,36.3,29.98,East,83,13.0,14.0,62,0.00,,,0.00,0,Wunderground v.1.15,2013-05-09 10:36:00,
2013-05-09 04:42:00,48.6,37.7,29.98,East,86,10.0,12.0,66,0.00,,,0.00,0,Wunderground v.1.15,2013-05-09 10:42:00,
2013-05-09 04:48:00,48.5,38.4,29.98,ESE,112,6.0,12.0,68,0.00,,,0.00,0,Wunderground v.1.15,2013-05-09 10:48:00,
2013-05-09 04:54:00,47.6,37.2,29.98,ESE,105,6.0,12.0,67,0.00,,,0.00,0,Wunderground v.1.15,2013-05-09 10:54:00,
2013-05-09 05:00:00,47.9,38.6,29.98,ESE,117,7.0,12.0,70,0.00,,,0.00,0,Wunderground v.1.15,2013-05-09 11:00:00,
2013-05-09 05:06:00,48.2,38.9,29.98,ESE,104,7.0,12.0,70,0.00,,,0.00,0,Wunderground v.1.15,2013-05-09 11:06:00,
2013-05-09 05:12:00,48.5,37.7,29.98,ESE,106,7.0,8.0,66,0.00,,,0.00,0,Wunderground v.1.15,2013-05-09 11:12:00,
2013-05-09 05:20:00,48.4,38.7,29.98,ESE,121,7.0,12.0,69,0.00,,,0.00,0,Wunderground v.1.15,2013-05-09 11:20:00,
2013-05-09 05:26:00,48.2,38.5,29.98,ESE,115,8.0,12.0,69,0.00,,,0.00,0,Wunderground v.1.15,2013-05-09 11:26:00,
2013-05-09 05:32:00,47.4,38.1,29.98,ESE,111,9.0,12.0,70,0.00,,,0.00,0,Wunderground v.1.15,2013-05-09 11:32:00,
2013-05-09 05:38:00,46.8,37.5,29.98,ESE,119,8.0,12.0,70,0.00,,,0.00,0,Wunderground v.1.15,2013-05-09 11:38:00,
2013-05-09 05:44:00,45.9,37.4,29.98,East,100,8.0,12.0,72,0.00,,,0.00,0,Wunderground v.1.15,2013-05-09 11:44:00,
2013-05-09 05:50:00,45.3,36.4,29.98,ESE,110,9.0,9.0,71,0.00,,,0.00,0,Wunderground v.1.15,2013-05-09 11:50:00,
2013-05-09 05:56:00,44.7,36.6,29.98,ESE,106,9.0,12.0,73,0.00,,,0.00,0,Wunderground v.1.15,2013-05-09 11:56:00,
2013-05-09 06:02:00,44.9,37.5,29.98,East,101,8.0,11.0,75,0.00,,,0.00,0,Wunderground v.1.15,2013-05-09 12:02:00,
2013-05-09 06:08:00,45.3,37.5,29.98,East,98,7.0,11.0,74,0.00,,,0.00,0,Wunderground v.1.15,2013-05-09 12:08:00,
2013-05-09 06:14:00,45.5,38.0,29.98,East,98,5.0,11.0,75,0.00,,,0.00,5,Wunderground v.1.15,2013-05-09 12:14:00,
2013-05-09 06:20:00,45.5,38.4,29.98,East,98,3.0,3.0,76,0.00,,,0.00,7,Wunderground v.1.15,2013-05-09 12:20:00,
2013-05-09 06:26:00,45.6,38.8,29.99,East,98,1.0,11.0,77,0.00,,,0.00,12,Wunderground v.1.15,2013-05-09 12:26:00,
2013-05-09 06:32:00,45.7,38.6,29.99,East,98,0.0,11.0,76,0.00,,,0.00,19,Wunderground v.1.15,2013-05-09 12:32:00,
2013-05-09 06:38:00,45.8,38.3,30.00,NE,39,1.0,11.0,75,0.00,,,0.00,25,Wunderground v.1.15,2013-05-09 12:38:00,
2013-05-09 06:44:00,45.6,37.8,30.00,NW,310,2.0,11.0,74,0.00,,,0.00,28,Wunderground v.1.15,2013-05-09 12:44:00,
2013-05-09 06:50:00,45.1,38.0,30.00,NNW,328,5.0,5.0,76,0.00,,,0.00,28,Wunderground v.1.15,2013-05-09 12:50:00,
2013-05-09 06:56:00,44.7,37.6,30.00,NW,320,5.0,11.0,76,0.00,,,0.00,35,Wunderground v.1.15,2013-05-09 12:56:00,
2013-05-09 07:02:00,44.5,37.7,30.01,NW,314,5.0,11.0,77,0.00,,,0.00,46,Wunderground v.1.15,2013-05-09 13:02:00,
2013-05-09 07:08:00,44.8,38.4,30.01,West,275,5.0,11.0,78,0.00,,,0.00,47,Wunderground v.1.15,2013-05-09 13:08:00,
2013-05-09 07:14:00,44.4,37.6,30.02,West,260,8.0,14.0,77,0.00,,,0.00,44,Wunderground v.1.15,2013-05-09 13:14:00,
2013-05-09 07:20:00,43.8,37.4,30.03,West,263,12.0,12.0,78,0.00,,,0.00,46,Wunderground v.1.15,2013-05-09 13:20:00,
2013-05-09 07:26:00,43.5,36.8,30.03,WNW,285,11.0,12.0,77,0.00,,,0.00,51,Wunderground v.1.15,2013-05-09 13:26:00,
2013-05-09 07:32:00,43.7,36.0,30.03,WNW,295,8.0,11.0,74,0.00,,,0.00,54,Wunderground v.1.15,2013-05-09 13:32:00,
2013-05-09 07:38:00,44.0,35.6,30.03,WNW,295,3.0,11.0,72,0.00,,,0.00,67,Wunderground v.1.15,2013-05-09 13:38:00,
2013-05-09 07:44:00,44.3,36.2,30.03,WNW,289,2.0,11.0,73,0.00,,,0.00,90,Wunderground v.1.15,2013-05-09 13:44:00,
2013-05-09 07:50:00,44.6,36.8,30.04,SSE,159,3.0,11.0,74,0.00,,,0.00,113,Wunderground v.1.15,2013-05-09 13:50:00,
2013-05-09 07:56:00,44.9,36.8,30.04,South,172,4.0,11.0,73,0.00,,,0.00,114,Wunderground v.1.15,2013-05-09 13:56:00,
2013-05-09 08:36:00,48.7,39.7,30.04,SSW,210,9.0,11.0,71,0.00,,,0.00,49,Wunderground v.1.15,2013-05-09 14:36:00,
2013-05-09 08:44:00,48.7,37.5,30.03,South,179,9.0,11.0,65,0.00,,,0.00,336,Wunderground v.1.15,2013-05-09 14:44:00,
2013-05-09 09:04:00,49.7,39.6,30.02,East,89,11.0,12.0,68,0.00,,,0.00,464,Wunderground v.1.15,2013-05-09 15:04:00,
2013-05-09 09:22:00,52.1,39.9,30.01,East,93,15.0,15.0,63,0.00,,,0.00,144,Wunderground v.1.15,2013-05-09 15:22:00,
2013-05-09 09:30:00,52.8,39.7,30.02,ENE,77,10.0,10.0,61,0.00,,,0.00,568,Wunderground v.1.15,2013-05-09 15:30:00,
2013-05-09 09:42:00,53.8,39.4,30.02,ENE,69,6.0,11.0,58,0.00,,,0.00,592,Wunderground v.1.15,2013-05-09 15:42:00,
2013-05-09 09:56:00,55.8,39.9,30.01,ENE,77,6.0,11.0,55,0.00,,,0.00,617,Wunderground v.1.15,2013-05-09 15:56:00,
2013-05-09 10:10:00,58.3,40.2,30.00,East,87,8.0,8.0,51,0.00,,,0.00,188,Wunderground v.1.15,2013-05-09 16:10:00,
2013-05-09 10:22:00,59.5,41.9,30.00,ENE,77,6.0,11.0,52,0.00,,,0.00,744,Wunderground v.1.15,2013-05-09 16:22:00,
2013-05-09 10:32:00,60.2,41.0,29.99,ESE,115,7.0,11.0,49,0.00,,,0.00,149,Wunderground v.1.15,2013-05-09 16:32:00,
2013-05-09 11:10:00,63.5,38.7,29.99,SE,125,4.0,4.0,40,0.00,,,0.00,895,Wunderground v.1.15,2013-05-09 17:10:00,
2013-05-09 11:22:00,65.0,39.4,29.99,WNW,291,3.0,11.0,39,0.00,,,0.00,879,Wunderground v.1.15,2013-05-09 17:22:00,
2013-05-09 11:42:00,66.4,37.2,29.98,SW,223,3.0,11.0,34,0.00,,,0.00,981,Wunderground v.1.15,2013-05-09 17:42:00,
2013-05-09 12:00:00,65.5,37.1,29.98,South,189,4.0,4.0,35,0.00,,,0.00,253,Wunderground v.1.15,2013-05-09 18:00:00,
2013-05-09 12:14:00,66.4,36.4,29.98,South,189,3.0,11.0,33,0.00,,,0.00,977,Wunderground v.1.15,2013-05-09 18:14:00,
2013-05-09 12:20:00,67.3,37.2,29.98,South,189,2.0,11.0,33,0.00,,,0.00,925,Wunderground v.1.15,2013-05-09 18:20:00,
2013-05-09 12:26:00,68.3,39.6,29.97,South,189,1.0,11.0,35,0.00,,,0.00,914,Wunderground v.1.15,2013-05-09 18:26:00,
2013-05-09 12:56:00,67.6,39.0,29.97,West,275,11.0,12.0,35,0.00,,,0.00,496,Wunderground v.1.15,2013-05-09 18:56:00,
2013-05-09 13:16:00,65.0,43.1,29.96,West,275,24.0,24.0,45,0.00,,,0.00,912,Wunderground v.1.15,2013-05-09 19:16:00,
2013-05-09 13:26:00,65.3,41.0,29.96,WNW,285,21.0,21.0,41,0.00,,,0.00,800,Wunderground v.1.15,2013-05-09 19:26:00,
2013-05-09 13:32:00,65.4,42.9,29.96,West,275,20.0,21.0,44,0.00,,,0.00,963,Wunderground v.1.15,2013-05-09 19:32:00,
2013-05-09 13:54:00,66.7,40.9,29.96,WNW,299,16.0,16.0,39,0.00,,,0.00,947,Wunderground v.1.15,2013-05-09 19:54:00,
2013-05-09 14:02:00,66.9,39.1,29.96,WNW,299,16.0,18.0,36,0.00,,,0.00,986,Wunderground v.1.15,2013-05-09 20:02:00,
2013-05-09 14:10:00,67.4,38.0,29.97,WNW,290,17.0,17.0,34,0.00,,,0.00,396,Wunderground v.1.15,2013-05-09 20:10:00,
2013-05-09 14:32:00,68.0,38.6,29.96,West,266,15.0,15.0,34,0.00,,,0.00,276,Wunderground v.1.15,2013-05-09 20:32:00,
2013-05-09 15:20:00,69.1,37.2,29.94,WNW,290,16.0,16.0,31,0.00,,,0.00,849,Wunderground v.1.15,2013-05-09 21:20:00,
2013-05-09 15:46:00,70.1,35.5,29.93,West,260,9.0,11.0,28,0.00,,,0.00,831,Wunderground v.1.15,2013-05-09 21:46:00,
2013-05-09 15:52:00,70.3,39.0,29.93,West,275,10.0,13.0,32,0.00,,,0.00,858,Wunderground v.1.15,2013-05-09 21:52:00,
2013-05-09 16:10:00,70.9,32.3,29.92,WSW,239,9.0,9.0,24,0.00,,,0.00,250,Wunderground v.1.15,2013-05-09 22:10:00,
2013-05-09 16:16:00,70.4,36.6,29.92,West,266,12.0,20.0,29,0.00,,,0.00,323,Wunderground v.1.15,2013-05-09 22:16:00,
2013-05-09 16:24:00,69.5,39.1,29.92,West,280,22.0,29.0,33,0.00,,,0.00,192,Wunderground v.1.15,2013-05-09 22:24:00,
2013-05-09 16:34:00,69.3,35.7,29.92,NW,305,21.0,21.0,29,0.00,,,0.00,132,Wunderground v.1.15,2013-05-09 22:34:00,
2013-05-09 16:44:00,69.0,37.9,29.91,West,280,20.0,20.0,32,0.00,,,0.00,413,Wunderground v.1.15,2013-05-09 22:44:00,
2013-05-09 16:50:00,69.2,36.4,29.91,WNW,290,18.0,18.0,30,0.00,,,0.00,237,Wunderground v.1.15,2013-05-09 22:50:00,
2013-05-09 17:06:00,68.8,36.9,29.91,WNW,289,17.0,17.0,31,0.00,,,0.00,635,Wunderground v.1.15,2013-05-09 23:06:00,
2013-05-09 17:12:00,69.4,36.6,29.91,West,275,17.0,19.0,30,0.00,,,0.00,142,Wunderground v.1.15,2013-05-09 23:12:00,
2013-05-09 17:18:00,69.5,39.1,29.91,West,275,16.0,19.0,33,0.00,,,0.00,130,Wunderground v.1.15,2013-05-09 23:18:00,
2013-05-09 17:24:00,69.2,40.4,29.91,WNW,285,15.0,16.0,35,0.00,,,0.00,123,Wunderground v.1.15,2013-05-09 23:24:00,
2013-05-09 17:30:00,69.2,38.1,29.92,WSW,253,12.0,12.0,32,0.00,,,0.00,130,Wunderground v.1.15,2013-05-09 23:30:00,
2013-05-09 17:36:00,69.2,37.3,29.92,West,261,7.0,12.0,31,0.00,,,0.00,142,Wunderground v.1.15,2013-05-09 23:36:00,
2013-05-09 17:46:00,69.2,39.6,29.92,SW,220,7.0,11.0,34,0.00,,,0.00,83,Wunderground v.1.15,2013-05-09 23:46:00,
2013-05-09 17:52:00,69.1,36.3,29.92,SSE,157,6.0,11.0,30,0.00,,,0.00,76,Wunderground v.1.15,2013-05-09 23:52:00,
2013-05-09 17:58:00,68.9,37.8,29.93,SSW,204,6.0,11.0,32,0.00,,,0.00,100,Wunderground v.1.15,2013-05-09 23:58:00,
2013-05-09 18:04:00,68.7,41.4,29.93,NE,45,6.0,11.0,37,0.00,,,0.00,239,Wunderground v.1.15,2013-05-10 00:04:00,
2013-05-09 18:10:00,67.4,38.0,29.93,NE,52,10.0,17.0,34,0.00,,,0.00,508,Wunderground v.1.15,2013-05-10 00:10:00,
2013-05-09 18:16:00,66.9,41.8,29.92,ENE,58,17.0,22.0,40,0.00,,,0.00,483,Wunderground v.1.15,2013-05-10 00:16:00,
2013-05-09 18:22:00,66.2,41.2,29.92,ENE,73,20.0,20.0,40,0.00,,,0.00,149,Wunderground v.1.15,2013-05-10 00:22:00,
2013-05-09 18:28:00,66.4,40.7,29.92,ENE,72,18.0,20.0,39,0.00,,,0.00,411,Wunderground v.1.15,2013-05-10 00:28:00,
2013-05-09 18:34:00,66.5,40.8,29.92,East,86,16.0,17.0,39,0.00,,,0.00,151,Wunderground v.1.15,2013-05-10 00:34:00,
2013-05-09 18:40:00,67.0,42.5,29.92,East,97,13.0,13.0,41,0.00,,,0.00,127,Wunderground v.1.15,2013-05-10 00:40:00,
2013-05-09 18:46:00,67.0,40.5,29.93,East,92,11.0,13.0,38,0.00,,,0.00,105,Wunderground v.1.15,2013-05-10 00:46:00,
2013-05-09 18:52:00,66.6,41.5,29.93,ESE,102,11.0,13.0,40,0.00,,,0.00,97,Wunderground v.1.15,2013-05-10 00:52:00,
2013-05-09 18:58:00,65.9,40.9,29.93,ESE,102,11.0,14.0,40,0.00,,,0.00,86,Wunderground v.1.15,2013-05-10 00:58:00,
2013-05-09 19:04:00,65.5,39.2,29.94,ESE,108,13.0,17.0,38,0.00,,,0.00,100,Wunderground v.1.15,2013-05-10 01:04:00,
2013-05-09 19:12:00,65.3,40.3,29.94,East,93,15.0,15.0,40,0.00,,,0.00,77,Wunderground v.1.15,2013-05-10 01:12:00,
2013-05-09 19:18:00,65.0,39.4,29.94,ENE,74,15.0,18.0,39,0.00,,,0.00,49,Wunderground v.1.15,2013-05-10 01:18:00,
2013-05-09 19:24:00,64.5,42.1,29.93,East,94,16.0,20.0,44,0.00,,,0.00,53,Wunderground v.1.15,2013-05-10 01:24:00,
2013-05-09 19:30:00,64.2,43.5,29.94,East,98,16.0,16.0,47,0.00,,,0.00,65,Wunderground v.1.15,2013-05-10 01:30:00,
2013-05-09 19:36:00,64.0,39.8,29.94,East,82,15.0,20.0,41,0.00,,,0.00,81,Wunderground v.1.15,2013-05-10 01:36:00,
2013-05-09 19:42:00,64.4,40.8,29.94,ESE,104,17.0,19.0,42,0.00,,,0.00,65,Wunderground v.1.15,2013-05-10 01:42:00,
2013-05-09 19:48:00,64.3,41.3,29.94,SE,140,17.0,24.0,43,0.00,,,0.00,42,Wunderground v.1.15,2013-05-10 01:48:00,
2013-05-09 19:54:00,63.7,40.2,29.94,SE,139,18.0,26.0,42,0.00,,,0.00,30,Wunderground v.1.15,2013-05-10 01:54:00,
2013-05-09 20:00:00,63.3,40.4,29.95,SSE,152,20.0,26.0,43,0.00,,,0.00,53,Wunderground v.1.15,2013-05-10 02:00:00,
2013-05-09 20:06:00,63.3,41.0,29.95,SE,126,19.0,26.0,44,0.00,,,0.00,28,Wunderground v.1.15,2013-05-10 02:06:00,
2013-05-09 20:12:00,63.2,41.5,29.95,East,86,14.0,26.0,45,0.00,,,0.00,26,Wunderground v.1.15,2013-05-10 02:12:00,
2013-05-09 20:18:00,62.8,43.9,29.95,ENE,70,14.0,26.0,50,0.00,,,0.00,23,Wunderground v.1.15,2013-05-10 02:18:00,
2013-05-09 20:24:00,62.3,41.2,29.96,ENE,70,18.0,26.0,46,0.00,,,0.00,19,Wunderground v.1.15,2013-05-10 02:24:00,
2013-05-09 20:30:00,62.1,41.6,29.96,ENE,76,17.0,26.0,47,0.00,,,0.00,21,Wunderground v.1.15,2013-05-10 02:30:00,
2013-05-09 20:36:00,61.9,42.0,29.96,East,84,17.0,26.0,48,0.00,,,0.00,16,Wunderground v.1.15,2013-05-10 02:36:00,
2013-05-09 20:42:00,62.1,42.2,29.96,East,91,16.0,26.0,48,0.00,,,0.00,9,Wunderground v.1.15,2013-05-10 02:42:00,
2013-05-09 20:50:00,62.1,41.1,29.97,East,93,13.0,26.0,46,0.00,,,0.00,5,Wunderground v.1.15,2013-05-10 02:50:00,
2013-05-09 20:56:00,62.2,40.0,29.97,East,98,13.0,26.0,44,0.00,,,0.00,0,Wunderground v.1.15,2013-05-10 02:56:00,
2013-05-09 21:02:00,62.3,40.7,29.97,East,100,13.0,26.0,45,0.00,,,0.00,0,Wunderground v.1.15,2013-05-10 03:02:00,
2013-05-09 21:08:00,61.8,40.8,29.97,ESE,102,13.0,26.0,46,0.00,,,0.00,0,Wunderground v.1.15,2013-05-10 03:08:00,
2013-05-09 21:14:00,61.2,40.8,29.97,East,93,15.0,26.0,47,0.00,,,0.00,0,Wunderground v.1.15,2013-05-10 03:14:00,
2013-05-09 21:20:00,61.0,40.1,29.98,East,87,14.0,14.0,46,0.00,,,0.00,0,Wunderground v.1.15,2013-05-10 03:20:00,
2013-05-09 21:26:00,60.6,41.3,29.98,ENE,73,13.0,26.0,49,0.00,,,0.00,0,Wunderground v.1.15,2013-05-10 03:26:00,
2013-05-09 21:32:00,60.3,41.0,29.98,East,89,12.0,26.0,49,0.00,,,0.00,0,Wunderground v.1.15,2013-05-10 03:32:00,
2013-05-09 21:38:00,59.9,40.7,29.98,ENE,64,11.0,26.0,49,0.00,,,0.00,0,Wunderground v.1.15,2013-05-10 03:38:00,
2013-05-09 21:44:00,60.0,39.1,29.98,East,101,13.0,26.0,46,0.00,,,0.00,0,Wunderground v.1.15,2013-05-10 03:44:00,
2013-05-09 21:50:00,60.3,39.4,29.98,East,93,14.0,26.0,46,0.00,,,0.00,0,Wunderground v.1.15,2013-05-10 03:50:00,
2013-05-09 21:56:00,59.8,40.6,29.98,East,91,14.0,26.0,49,0.00,,,0.00,0,Wunderground v.1.15,2013-05-10 03:56:00,
2013-05-09 22:02:00,59.2,42.1,29.99,NE,52,12.0,26.0,53,0.00,,,0.00,0,Wunderground v.1.15,2013-05-10 04:02:00,
2013-05-09 22:10:00,58.3,40.2,29.99,ENE,65,11.0,11.0,51,0.00,,,0.00,0,Wunderground v.1.15,2013-05-10 04:10:00,
2013-05-09 22:16:00,58.1,40.6,29.99,ENE,69,10.0,26.0,52,0.00,,,0.00,0,Wunderground v.1.15,2013-05-10 04:16:00,
2013-05-09 22:20:00,57.8,40.3,30.00,ENE,73,8.0,8.0,52,0.00,,,0.00,0,Wunderground v.1.15,2013-05-10 04:20:00,
2013-05-09 22:26:00,56.7,40.7,30.00,ENE,76,8.0,26.0,55,0.00,,,0.00,0,Wunderground v.1.15,2013-05-10 04:26:00,
2013-05-09 22:32:00,55.8,39.9,30.00,NE,47,9.0,26.0,55,0.00,,,0.00,0,Wunderground v.1.15,2013-05-10 04:32:00,
2013-05-09 22:40:00,55.8,38.9,30.00,ENE,66,8.0,26.0,53,0.00,,,0.00,0,Wunderground v.1.15,2013-05-10 04:40:00,
2013-05-09 22:46:00,56.5,39.1,30.00,ENE,69,8.0,26.0,52,0.00,,,0.00,0,Wunderground v.1.15,2013-05-10 04:46:00,
2013-05-09 22:52:00,56.9,38.4,30.00,ENE,75,9.0,26.0,50,0.00,,,0.00,0,Wunderground v.1.15,2013-05-10 04:52:00,
2013-05-09 23:00:00,56.2,41.6,30.00,ESE,112,7.0,7.0,58,0.00,,,0.00,0,Wunderground v.1.15,2013-05-10 05:00:00,
2013-05-09 23:06:00,55.2,39.8,30.00,East,91,7.0,10.0,56,0.00,,,0.00,0,Wunderground v.1.15,2013-05-10 05:06:00,
2013-05-09 23:14:00,54.1,39.6,30.00,East,91,9.0,26.0,58,0.00,,,0.00,0,Wunderground v.1.15,2013-05-10 05:14:00,
2013-05-09 23:22:00,53.4,41.1,30.00,ESE,110,8.0,26.0,63,0.00,,,0.00,0,Wunderground v.1.15,2013-05-10 05:22:00,
2013-05-09 23:28:00,52.6,40.8,30.00,East,95,11.0,26.0,64,0.00,,,0.00,0,Wunderground v.1.15,2013-05-10 05:28:00,
2013-05-09 23:34:00,52.5,39.8,30.00,East,95,12.0,26.0,62,0.00,,,0.00,0,Wunderground v.1.15,2013-05-10 05:34:00,
2013-05-09 23:40:00,52.1,41.5,30.00,East,98,12.0,26.0,67,0.00,,,0.00,0,Wunderground v.1.15,2013-05-10 05:40:00,
2013-05-09 23:46:00,52.1,41.9,29.99,ESE,108,15.0,26.0,68,0.00,,,0.00,0,Wunderground v.1.15,2013-05-10 05:46:00,
2013-05-09 23:52:00,52.1,41.9,30.00,ESE,112,18.0,26.0,68,0.00,,,0.00,0,Wunderground v.1.15,2013-05-10 05:52:00,
2013-05-09 23:58:00,52.2,42.0,30.00,ESE,102,19.0,26.0,68,0.00,,,0.00,0,Wunderground v.1.15,2013-05-10 05:58:00,